Time;durP1;ratioP1;P1;durP2;ratioP2;P2;SDS_P1;SDS_P2;PMS_P1;PMS_P2;Temp;Humidity;BMP_temperature;BMP_pressure;BME280_temperature;BME280_humidity;BME280_pressure;Samples;Min_cycle;Max_cycle;Signal;HPM_P1;HPM_P2
2022/07/21 00:02:03;;;;;;;13.93;8.38;;;;;;;21.59;100.00;100401.16;4972200;28;20065;-61
2022/07/21 00:04:29;;;;;;;13.00;7.25;;;;;;;21.58;100.00;100395.88;4970784;28;20458;-61
2022/07/21 00:06:57;;;;;;;11.93;6.82;;;;;;;21.57;100.00;100397.69;4970727;28;20027;-61
2022/07/21 00:09:23;;;;;;;12.50;7.25;;;;;;;21.61;100.00;100399.22;4971121;28;20030;-61
2022/07/21 00:11:48;;;;;;;11.27;6.75;;;;;;;21.63;100.00;100401.81;4969654;28;20755;-61
2022/07/21 00:14:14;;;;;;;11.98;6.78;;;;;;;21.64;100.00;100398.13;4969479;28;20034;-61
2022/07/21 00:16:40;;;;;;;13.55;7.68;;;;;;;21.61;100.00;100399.22;4968767;28;20387;-61
2022/07/21 00:19:06;;;;;;;14.88;8.02;;;;;;;21.59;100.00;100394.88;4968534;28;20538;-61
2022/07/21 00:21:32;;;;;;;12.27;7.65;;;;;;;21.64;100.00;100400.81;4973665;28;20027;-61
2022/07/21 00:23:57;;;;;;;13.00;7.55;;;;;;;21.61;100.00;100387.50;4973345;28;20078;-61
2022/07/21 00:26:23;;;;;;;11.63;7.10;;;;;;;21.66;100.00;100398.88;4974524;28;20419;-61
2022/07/21 00:28:49;;;;;;;12.23;6.97;;;;;;;21.68;100.00;100405.91;4993564;28;20494;-61
2022/07/21 00:31:15;;;;;;;12.65;7.65;;;;;;;21.71;100.00;100389.44;4993847;28;20031;-62
2022/07/21 00:33:41;;;;;;;13.63;8.20;;;;;;;21.76;100.00;100399.97;4995598;28;20026;-61
2022/07/21 00:36:07;;;;;;;11.80;6.63;;;;;;;21.79;100.00;100399.75;4995658;28;20031;-62
2022/07/21 00:38:32;;;;;;;10.82;7.10;;;;;;;21.80;100.00;100387.94;5012638;28;20437;-62
2022/07/21 00:40:58;;;;;;;11.93;6.50;;;;;;;21.79;100.00;100402.47;5014508;28;20091;-62
2022/07/21 00:43:23;;;;;;;11.15;6.63;;;;;;;21.79;100.00;100397.06;5014789;28;20041;-61
2022/07/21 00:45:53;;;;;;;11.98;6.75;;;;;;;21.81;100.00;100406.78;5014793;28;20030;-61
2022/07/21 00:48:18;;;;;;;11.90;6.75;;;;;;;21.83;100.00;100410.25;5014563;28;20040;-61
2022/07/21 00:50:43;;;;;;;10.95;6.60;;;;;;;21.81;100.00;100411.34;5010055;28;21466;-61
2022/07/21 00:53:09;;;;;;;14.35;6.97;;;;;;;21.84;100.00;100413.84;4976925;28;20414;-61
2022/07/21 00:55:34;;;;;;;13.98;6.85;;;;;;;21.84;100.00;100411.13;4975391;28;20043;-61
2022/07/21 00:58:00;;;;;;;11.95;6.95;;;;;;;21.81;100.00;100411.34;4975439;28;20034;-62
2022/07/21 01:00:28;;;;;;;9.50;6.47;;;;;;;21.77;100.00;100410.72;4975323;28;20109;-62
2022/07/21 01:02:56;;;;;;;11.18;6.78;;;;;;;21.77;100.00;100409.84;4975329;28;20026;-62
2022/07/21 01:05:21;;;;;;;9.07;6.45;;;;;;;21.77;100.00;100412.53;4975298;28;20038;-62
2022/07/21 01:07:49;;;;;;;13.45;6.82;;;;;;;21.70;100.00;100414.78;4975282;28;20475;-62
2022/07/21 01:10:16;;;;;;;11.23;7.00;;;;;;;21.67;100.00;100408.72;4974782;28;20054;-62
2022/07/21 01:12:42;;;;;;;11.88;7.10;;;;;;;21.65;100.00;100399.84;4975198;28;20027;-62
2022/07/21 01:15:10;;;;;;;10.43;7.00;;;;;;;21.63;100.00;100407.22;4977574;28;20037;-62
2022/07/21 01:17:35;;;;;;;9.93;6.07;;;;;;;21.59;100.00;100412.00;4977288;28;20027;-62
2022/07/21 01:20:07;;;;;;;12.15;6.47;;;;;;;21.64;100.00;100403.53;4974768;28;20066;-62
2022/07/21 01:22:37;;;;;;;9.93;6.38;;;;;;;21.68;100.00;100415.91;4974889;28;20042;-62
2022/07/21 01:25:03;;;;;;;14.60;6.70;;;;;;;21.69;100.00;100420.31;4974997;28;20516;-62
2022/07/21 01:27:28;;;;;;;10.88;6.88;;;;;;;21.66;100.00;100417.84;4985545;28;20022;-62
2022/07/21 01:29:55;;;;;;;10.05;6.15;;;;;;;21.69;100.00;100415.78;4994228;28;20033;-62
2022/07/21 01:32:20;;;;;;;10.38;6.50;;;;;;;21.69;100.00;100417.59;4993913;28;20034;-62
2022/07/21 01:34:49;;;;;;;11.00;6.97;;;;;;;21.70;100.00;100432.88;4994257;28;20042;-62
2022/07/21 01:37:15;;;;;;;25.83;7.65;;;;;;;21.72;100.00;100420.09;4994033;28;20033;-62
2022/07/21 01:42:24;;;;;;;15.00;7.55;;;;;;;21.68;100.00;100432.97;4994369;28;20045;-62
2022/07/21 01:44:51;;;;;;;12.60;7.95;;;;;;;21.67;100.00;100430.38;4994232;28;20382;-62
2022/07/21 01:47:17;;;;;;;11.60;7.40;;;;;;;21.57;100.00;100421.19;4993889;28;20060;-62
2022/07/21 01:49:43;;;;;;;12.25;7.70;;;;;;;21.62;100.00;100437.97;4993906;28;20022;-62
2022/07/21 01:52:09;;;;;;;11.80;7.57;;;;;;;21.60;100.00;100437.22;4986833;28;20476;-62
2022/07/21 01:54:34;;;;;;;11.35;6.65;;;;;;;21.56;100.00;100435.72;4974524;28;20039;-62
2022/07/21 01:57:00;;;;;;;10.85;6.63;;;;;;;21.52;100.00;100437.75;4989918;28;20373;-62
2022/07/21 01:59:25;;;;;;;10.38;6.35;;;;;;;21.51;100.00;100440.59;4991949;28;20509;-62
2022/07/21 02:01:51;;;;;;;9.10;6.10;;;;;;;21.50;100.00;100444.28;4992092;28;20030;-62
2022/07/21 02:04:16;;;;;;;9.63;5.72;;;;;;;21.48;100.00;100451.63;4991947;28;20398;-62
2022/07/21 02:06:42;;;;;;;9.93;6.45;;;;;;;21.44;100.00;100445.56;4991441;28;20026;-62
2022/07/21 02:09:08;;;;;;;11.75;7.10;;;;;;;21.46;100.00;100451.75;4992093;28;20116;-62
2022/07/21 02:11:34;;;;;;;10.35;6.30;;;;;;;21.46;100.00;100456.28;4989085;28;20023;-62
2022/07/21 02:13:59;;;;;;;10.90;6.88;;;;;;;21.46;100.00;100469.81;4985085;28;20031;-62
2022/07/21 02:16:25;;;;;;;12.63;7.03;;;;;;;21.49;100.00;100475.00;4993600;28;20026;-62
2022/07/21 02:18:50;;;;;;;10.77;6.90;;;;;;;21.49;100.00;100475.00;4993116;28;20050;-62
2022/07/21 02:21:16;;;;;;;11.77;6.95;;;;;;;21.50;100.00;100474.91;4993161;28;20469;-62
2022/07/21 02:23:41;;;;;;;13.73;6.88;;;;;;;21.55;100.00;100482.69;4974267;28;20146;-62
2022/07/21 02:26:07;;;;;;;15.77;6.93;;;;;;;21.56;100.00;100490.72;4974207;28;20031;-61
2022/07/21 02:28:32;;;;;;;12.80;7.88;;;;;;;21.58;100.00;100496.03;5009530;28;20064;-61
2022/07/21 02:30:58;;;;;;;14.38;7.90;;;;;;;21.59;100.00;100486.94;4981862;28;20031;-62
2022/07/21 02:33:23;;;;;;;14.43;8.25;;;;;;;21.60;100.00;100491.34;4973671;28;20027;-62
2022/07/21 02:35:49;;;;;;;12.35;7.32;;;;;;;21.61;100.00;100487.69;4973524;28;20027;-62
2022/07/21 02:38:14;;;;;;;13.90;7.97;;;;;;;21.59;100.00;100489.63;4972666;28;20026;-62
2022/07/21 02:40:40;;;;;;;14.13;7.90;;;;;;;21.59;100.00;100481.50;4972497;28;20026;-62
2022/07/21 02:43:06;;;;;;;14.77;7.75;;;;;;;21.59;100.00;100492.34;4971676;28;20463;-62
2022/07/21 02:45:36;;;;;;;17.35;8.70;;;;;;;21.54;100.00;100487.25;4971886;28;20082;-62
2022/07/21 02:48:07;;;;;;;14.35;8.60;;;;;;;21.61;100.00;100490.41;4972454;28;20022;-62
2022/07/21 02:50:34;;;;;;;13.55;8.60;;;;;;;21.65;100.00;100489.19;4972101;28;20491;-62
2022/07/21 02:53:06;;;;;;;13.13;9.10;;;;;;;21.67;100.00;100481.84;4974495;28;20031;-62
2022/07/21 02:55:31;;;;;;;17.65;9.55;;;;;;;21.66;100.00;100472.00;4973108;28;20037;-62
2022/07/21 02:58:27;;;;;;;13.77;8.65;;;;;;;21.71;100.00;100473.38;4973199;28;20435;-62
2022/07/21 03:00:58;;;;;;;15.57;9.07;;;;;;;21.70;100.00;100489.75;4960854;28;20129;-61
2022/07/21 03:03:26;;;;;;;16.02;9.23;;;;;;;21.61;100.00;100469.63;4973168;28;20038;-61
2022/07/21 03:05:51;;;;;;;17.70;9.05;;;;;;;21.63;100.00;100481.19;4973099;28;20023;-62
2022/07/21 03:08:18;;;;;;;14.50;8.73;;;;;;;21.62;100.00;100478.59;4972987;28;20053;-62
2022/07/21 03:10:43;;;;;;;16.55;9.55;;;;;;;21.63;100.00;100467.66;4975685;28;20053;-62
2022/07/21 03:13:09;;;;;;;14.40;9.75;;;;;;;21.59;100.00;100466.16;4972612;28;20035;-62
2022/07/21 03:15:35;;;;;;;15.45;9.50;;;;;;;21.56;100.00;100466.38;4973066;28;20090;-62
2022/07/21 03:18:00;;;;;;;14.38;9.35;;;;;;;21.50;100.00;100460.53;4972833;28;20430;-62
2022/07/21 03:20:29;;;;;;;14.77;9.32;;;;;;;21.53;100.00;100473.84;4972870;28;20078;-62
2022/07/21 03:22:54;;;;;;;15.73;10.00;;;;;;;21.54;100.00;100470.13;4972677;28;20018;-61
2022/07/21 03:25:20;;;;;;;20.70;10.02;;;;;;;21.57;100.00;100478.91;4975126;28;20467;-62
2022/07/21 03:27:46;;;;;;;14.63;9.55;;;;;;;21.56;100.00;100476.31;4985201;28;20038;-62
2022/07/21 03:30:12;;;;;;;16.90;9.65;;;;;;;21.59;100.00;100476.09;4992346;28;20022;-62
2022/07/21 03:32:38;;;;;;;16.08;9.45;;;;;;;21.62;100.00;100481.28;4991936;28;20034;-62
2022/07/21 03:35:05;;;;;;;21.92;10.10;;;;;;;21.66;100.00;100483.66;4992292;28;20481;-62
2022/07/21 03:37:31;;;;;;;17.23;9.00;;;;;;;21.69;100.00;100482.59;4991921;28;20033;-62
2022/07/21 03:39:56;;;;;;;16.50;9.77;;;;;;;21.70;100.00;100489.75;4992342;28;20031;-62
2022/07/21 03:42:22;;;;;;;16.35;9.60;;;;;;;21.70;100.00;100492.44;4989771;28;20490;-62
2022/07/21 03:44:47;;;;;;;17.50;10.65;;;;;;;21.73;100.00;100489.56;4990093;28;20028;-62
2022/07/21 03:47:13;;;;;;;19.25;10.75;;;;;;;21.75;100.00;100493.00;4990545;28;20041;-62
2022/07/21 03:49:38;;;;;;;17.65;9.80;;;;;;;21.76;100.00;100506.44;4990142;28;20034;-62
2022/07/21 03:52:04;;;;;;;14.75;8.75;;;;;;;21.76;100.00;100500.16;4983277;28;20439;-62
2022/07/21 03:54:30;;;;;;;17.77;9.60;;;;;;;21.84;100.00;100493.25;4970514;28;20026;-62
2022/07/21 03:56:55;;;;;;;19.95;11.27;;;;;;;21.87;100.00;100495.75;4993473;28;20033;-62
2022/07/21 03:59:20;;;;;;;14.98;9.65;;;;;;;;;;4991804;28;20413;-62
2022/07/21 04:01:46;;;;;;;15.95;8.82;;;;;;;21.90;100.00;100489.22;4991822;28;20037;-62
2022/07/21 04:04:11;;;;;;;19.23;9.10;;;;;;;21.96;100.00;100491.47;4991532;28;20170;-62
2022/07/21 04:06:37;;;;;;;15.63;9.57;;;;;;;21.98;100.00;100497.66;4994369;28;20105;-62
2022/07/21 04:09:03;;;;;;;16.40;9.60;;;;;;;21.97;100.00;100487.81;4991670;28;20022;-62
2022/07/21 04:11:30;;;;;;;18.77;10.70;;;;;;;21.98;100.00;100492.25;4991624;28;20030;-62
2022/07/21 04:13:55;;;;;;;15.23;9.48;;;;;;;21.96;100.00;100496.91;4991683;28;20053;-62
2022/07/21 04:16:21;;;;;;;15.82;9.90;;;;;;;;;;4990523;28;20065;-62
2022/07/21 04:18:46;;;;;;;15.60;9.15;;;;;;;21.80;100.00;100490.84;4990218;28;20182;-62
2022/07/21 04:21:12;;;;;;;16.45;9.50;;;;;;;21.77;100.00;100491.97;4990503;28;20129;-62
2022/07/21 04:23:37;;;;;;;20.17;9.07;;;;;;;21.75;100.00;100493.00;4991377;28;20474;-62
2022/07/21 04:26:02;;;;;;;15.18;10.15;;;;;;;21.74;100.00;100486.72;4989953;28;20034;-62
2022/07/21 04:28:28;;;;;;;17.38;10.10;;;;;;;21.75;100.00;100487.56;4971411;28;20051;-62
2022/07/21 04:30:53;;;;;;;17.50;10.10;;;;;;;21.78;100.00;100487.38;4971238;28;20030;-62
2022/07/21 04:33:19;;;;;;;18.13;9.70;;;;;;;21.81;100.00;100492.59;4971920;28;20038;-62
2022/07/21 04:35:44;;;;;;;18.17;9.65;;;;;;;21.84;100.00;100486.97;4972129;28;20050;-62
2022/07/21 04:38:10;;;;;;;18.42;10.70;;;;;;;21.83;100.00;100487.91;4971938;28;20097;-62
2022/07/21 04:40:36;;;;;;;19.05;11.55;;;;;;;21.86;100.00;100487.72;4987747;28;20390;-62
2022/07/21 04:43:02;;;;;;;18.30;9.38;;;;;;;21.91;100.00;100489.13;4991280;28;20045;-62
2022/07/21 04:45:27;;;;;;;15.30;9.05;;;;;;;21.92;100.00;100493.56;4991379;28;20034;-62
2022/07/21 04:47:54;;;;;;;18.92;9.93;;;;;;;21.94;100.00;100497.00;4991490;28;20033;-62
2022/07/21 04:50:24;;;;;;;21.70;10.95;;;;;;;21.93;100.00;100500.72;4988190;28;20030;-62
2022/07/21 04:52:50;;;;;;;17.17;10.18;;;;;;;21.94;100.00;100493.47;4978530;28;20101;-62
2022/07/21 04:55:16;;;;;;;17.70;10.30;;;;;;;21.95;100.00;100500.59;4971473;28;20542;-62
2022/07/21 04:57:45;;;;;;;16.73;9.70;;;;;;;21.96;100.00;100505.91;4971836;28;20030;-62
2022/07/21 05:00:14;;;;;;;17.70;10.30;;;;;;;21.99;100.00;100504.84;4971567;28;20478;-62
2022/07/21 05:02:40;;;;;;;19.50;10.70;;;;;;;22.00;100.00;100509.28;4971838;28;20041;-62
2022/07/21 05:05:06;;;;;;;18.75;10.40;;;;;;;21.99;100.00;100502.13;4971888;28;20530;-62
2022/07/21 05:07:31;;;;;;;17.00;9.73;;;;;;;21.97;100.00;100513.06;4978719;28;20177;-62
2022/07/21 05:09:58;;;;;;;21.17;10.55;;;;;;;22.01;100.00;100511.00;4994328;28;20101;-62
2022/07/21 05:12:24;;;;;;;20.00;9.40;;;;;;;22.06;100.00;100515.13;4994902;28;20026;-62
2022/07/21 05:14:50;;;;;;;16.80;9.95;;;;;;;22.11;100.00;100514.78;4994622;28;20022;-62
2022/07/21 05:17:15;;;;;;;23.33;11.98;;;;;;;22.18;100.00;100518.78;4991427;28;20026;-62
2022/07/21 05:19:42;;;;;;;18.45;10.65;;;;;;;22.32;100.00;100525.91;4994343;28;20050;-62
2022/07/21 05:22:07;;;;;;;18.75;11.00;;;;;;;22.37;100.00;100519.19;4987451;28;20031;-62
2022/07/21 05:24:34;;;;;;;16.70;9.70;;;;;;;22.42;100.00;100511.56;4974697;28;20046;-62
2022/07/21 05:26:59;;;;;;;17.98;10.00;;;;;;;22.55;100.00;100523.31;4974967;28;20434;-62
2022/07/21 05:29:25;;;;;;;16.10;9.95;;;;;;;22.59;100.00;100518.50;4974879;28;20081;-62
2022/07/21 05:31:50;;;;;;;20.23;10.30;;;;;;;22.60;100.00;100523.78;4974490;28;20045;-62
2022/07/21 05:34:16;;;;;;;16.65;10.48;;;;;;;22.60;100.00;100521.09;4974879;28;20029;-62
2022/07/21 05:36:41;;;;;;;16.48;9.88;;;;;;;22.64;100.00;100522.59;4974664;28;20034;-62
2022/07/21 05:39:06;;;;;;;21.10;11.55;;;;;;;22.68;100.00;100521.41;4973166;28;20058;-62
2022/07/21 05:41:32;;;;;;;17.02;10.55;;;;;;;22.73;100.00;100521.94;4973297;28;20034;-62
2022/07/21 05:43:57;;;;;;;18.98;10.63;;;;;;;22.82;100.00;100499.53;4973281;28;20027;-62
2022/07/21 05:46:23;;;;;;;20.00;10.95;;;;;;;22.97;100.00;100513.78;4973163;28;20030;-62
2022/07/21 05:48:48;;;;;;;22.70;11.02;;;;;;;23.05;100.00;100511.34;4972964;28;20026;-62
2022/07/21 05:51:14;;;;;;;19.38;11.35;;;;;;;23.06;100.00;100492.22;4972802;28;20490;-62
2022/07/21 05:53:40;;;;;;;17.80;11.65;;;;;;;23.20;100.00;100505.63;4992704;28;20386;-62
2022/07/21 05:56:06;;;;;;;21.48;10.20;;;;;;;23.27;100.00;100506.06;4993543;28;20026;-62
2022/07/21 05:58:33;;;;;;;23.30;11.55;;;;;;;23.23;100.00;100505.38;4994108;28;20064;-62
2022/07/21 06:01:16;;;;;;;18.45;11.80;;;;;;;23.24;100.00;100512.53;4995366;28;20056;-62
2022/07/21 06:03:44;;;;;;;21.17;12.23;;;;;;;23.36;100.00;100517.06;4995959;28;20063;-62
2022/07/21 06:06:11;;;;;;;19.45;11.43;;;;;;;23.50;100.00;100520.56;4993267;28;20361;-62
2022/07/21 06:08:38;;;;;;;19.33;12.60;;;;;;;23.49;100.00;100518.84;4992649;28;20137;-62
2022/07/21 06:11:04;;;;;;;18.05;10.50;;;;;;;23.54;100.00;100520.22;4992485;28;20034;-62
2022/07/21 06:13:29;;;;;;;18.10;11.07;;;;;;;23.66;100.00;100523.84;4992791;28;20035;-62
2022/07/21 06:15:55;;;;;;;19.27;12.57;;;;;;;23.76;100.00;100525.69;4995215;28;20112;-62
2022/07/21 06:18:20;;;;;;;18.77;11.43;;;;;;;23.90;100.00;100535.47;4991567;28;20076;-62
2022/07/21 06:20:46;;;;;;;19.88;11.70;;;;;;;23.97;100.00;100532.13;4992285;28;20054;-62
2022/07/21 06:23:11;;;;;;;16.92;10.98;;;;;;;23.99;100.00;100527.50;4977097;28;20035;-62
2022/07/21 06:25:36;;;;;;;16.27;10.50;;;;;;;23.98;100.00;100536.63;4974097;28;20500;-62
2022/07/21 06:28:02;;;;;;;17.90;11.20;;;;;;;23.89;100.00;100536.44;4988663;28;20386;-62
2022/07/21 06:30:27;;;;;;;17.75;10.98;;;;;;;23.61;100.00;100505.16;4993066;28;20122;-62
2022/07/21 06:32:53;;;;;;;17.48;11.48;;;;;;;23.75;100.00;100533.97;4993087;28;20072;-62
2022/07/21 06:35:18;;;;;;;17.95;11.52;;;;;;;23.82;100.00;100536.06;4993011;28;20041;-62
2022/07/21 06:37:45;;;;;;;17.02;10.88;;;;;;;23.93;100.00;100538.81;4993075;28;20038;-62
2022/07/21 06:40:11;;;;;;;18.63;11.07;;;;;;;23.97;100.00;100544.88;4982997;28;20089;-62
2022/07/21 06:42:37;;;;;;;17.27;11.93;;;;;;;24.15;100.00;100521.69;4970304;28;20030;-62
2022/07/21 06:45:03;;;;;;;20.75;11.32;;;;;;;24.38;100.00;100539.75;4971874;28;20019;-62
2022/07/21 06:47:28;;;;;;;19.77;12.38;;;;;;;24.33;99.13;100539.25;4974102;28;20022;-62
2022/07/21 06:49:54;;;;;;;19.88;11.50;;;;;;;24.19;99.19;100539.47;4975369;28;20042;-62
2022/07/21 06:52:19;;;;;;;19.90;11.13;;;;;;;24.10;99.32;100546.50;4983006;28;20019;-62
2022/07/21 06:54:45;;;;;;;16.63;11.38;;;;;;;24.04;100.00;100552.44;4990989;28;20041;-62
2022/07/21 06:57:10;;;;;;;19.08;11.23;;;;;;;24.02;100.00;100559.00;4985823;28;20041;-62
2022/07/21 06:59:35;;;;;;;18.20;10.73;;;;;;;24.03;100.00;100563.44;4971877;28;20096;-62
2022/07/21 07:02:01;;;;;;;18.77;11.60;;;;;;;24.26;100.00;100557.91;4973891;28;20553;-62
2022/07/21 07:04:27;;;;;;;17.67;10.98;;;;;;;24.58;100.00;100566.16;4987645;28;20030;-62
2022/07/21 07:06:55;;;;;;;17.60;11.13;;;;;;;24.92;98.59;100565.16;4976386;28;20031;-61
2022/07/21 07:09:21;;;;;;;16.52;10.95;;;;;;;25.12;94.91;100564.38;4970768;28;20030;-61
2022/07/21 07:11:46;;;;;;;17.38;12.40;;;;;;;25.13;92.24;100557.06;4970958;28;20037;-61
2022/07/21 07:14:14;;;;;;;16.58;10.70;;;;;;;25.06;91.97;100564.03;4972183;28;20188;-61
2022/07/21 07:16:39;;;;;;;15.30;10.05;;;;;;;25.17;92.05;100567.56;4989850;28;20036;-61
2022/07/21 07:19:05;;;;;;;16.52;10.80;;;;;;;25.27;92.05;100563.06;4971040;28;20059;-61
2022/07/21 07:21:31;;;;;;;15.00;10.75;;;;;;;25.24;91.35;100567.94;4971337;28;20038;-61
2022/07/21 07:23:56;;;;;;;16.60;10.98;;;;;;;25.45;89.45;100566.97;4973204;28;20031;-61
2022/07/21 07:26:22;;;;;;;14.90;9.55;;;;;;;25.69;86.51;100559.44;4972912;28;20030;-61
2022/07/21 07:28:47;;;;;;;13.60;9.85;;;;;;;26.09;85.63;100562.31;4984454;28;20766;-61
2022/07/21 07:31:12;;;;;;;13.10;9.00;;;;;;;26.46;82.67;100570.81;4982209;28;20038;-61
2022/07/21 07:33:38;;;;;;;15.10;10.23;;;;;;;26.33;81.29;100564.72;4980066;28;20042;-61
2022/07/21 07:36:03;;;;;;;15.77;9.13;;;;;;;26.55;80.84;100564.53;4990345;28;20049;-61
2022/07/21 07:38:29;;;;;;;16.92;9.63;;;;;;;26.85;79.26;100568.09;4976159;28;20031;-61
2022/07/21 07:40:54;;;;;;;14.10;9.60;;;;;;;27.23;77.70;100562.72;4970999;28;20252;-61
2022/07/21 07:43:20;;;;;;;14.63;9.57;;;;;;;27.56;75.69;100561.47;4967801;28;20026;-61
2022/07/21 07:45:45;;;;;;;12.75;8.70;;;;;;;27.75;75.85;100561.47;4982379;28;20030;-61
2022/07/21 07:48:11;;;;;;;14.93;8.95;;;;;;;28.06;73.42;100546.59;4988931;28;20039;-61
2022/07/21 07:50:36;;;;;;;12.40;8.80;;;;;;;28.43;69.55;100558.41;4988640;28;20023;-61
2022/07/21 07:53:02;;;;;;;11.77;8.38;;;;;;;28.57;66.34;100556.25;4973457;28;20030;-61
2022/07/21 07:55:27;;;;;;;14.00;8.38;;;;;;;28.66;68.70;100560.81;4981022;28;20054;-61
2022/07/21 07:57:53;;;;;;;13.70;9.15;;;;;;;28.77;67.68;100563.34;4988792;28;20034;-61
2022/07/21 08:00:19;;;;;;;11.43;7.70;;;;;;;28.96;67.01;100566.81;4988455;28;20034;-61
2022/07/21 08:02:45;;;;;;;12.13;8.07;;;;;;;29.41;65.65;100553.13;4974699;28;20117;-61
2022/07/21 08:05:11;;;;;;;11.05;7.65;;;;;;;29.35;61.50;100551.03;4969829;28;20114;-61
2022/07/21 08:07:40;;;;;;;12.50;8.00;;;;;;;29.25;64.56;100552.97;4973616;28;20034;-61
2022/07/21 08:10:12;;;;;;;12.10;6.90;;;;;;;29.49;64.38;100555.94;4971252;28;20063;-61
2022/07/21 08:12:38;;;;;;;12.60;7.88;;;;;;;29.73;61.62;100553.47;4985887;28;20030;-61
2022/07/21 08:15:04;;;;;;;10.93;7.32;;;;;;;29.74;60.69;100555.16;4990979;28;20831;-61
2022/07/21 08:17:30;;;;;;;10.93;7.38;;;;;;;29.15;63.46;100554.91;4988144;28;20058;-61
2022/07/21 08:19:56;;;;;;;13.55;7.60;;;;;;;29.29;64.33;100559.88;4979013;28;20042;-62
2022/07/21 08:22:22;;;;;;;12.75;7.00;;;;;;;29.62;61.31;100557.28;4983748;28;20037;-62
2022/07/21 08:24:47;;;;;;;12.68;6.82;;;;;;;29.36;60.76;100560.94;4988173;28;20018;-62
2022/07/21 08:27:13;;;;;;;15.35;10.20;;;;;;;29.09;64.53;100558.28;4979842;28;20080;-62
2022/07/21 08:29:38;;;;;;;11.27;8.30;;;;;;;28.97;64.45;100564.97;4968675;28;20382;-62
2022/07/21 08:32:04;;;;;;;13.35;6.82;;;;;;;29.05;61.74;100567.78;4968354;28;20035;-62
2022/07/21 08:34:30;;;;;;;10.20;7.00;;;;;;;28.80;63.74;100569.38;4970452;28;20110;-62
2022/07/21 08:36:56;;;;;;;11.57;7.20;;;;;;;28.96;63.55;100569.56;4970316;28;20022;-62
2022/07/21 08:39:21;;;;;;;9.88;6.43;;;;;;;29.07;65.61;100568.50;4971114;28;20442;-62
2022/07/21 08:41:47;;;;;;;16.73;7.38;;;;;;;29.25;63.20;100570.28;4975071;28;20031;-62
2022/07/21 08:44:13;;;;;;;10.63;6.85;;;;;;;29.20;60.97;100572.63;4975779;28;20022;-62
2022/07/21 08:46:41;;;;;;;12.43;6.70;;;;;;;29.58;60.79;100576.94;4975616;28;20030;-62
2022/07/21 08:49:09;;;;;;;8.35;5.38;;;;;;;29.86;55.54;100586.81;4978192;28;20034;-62
2022/07/21 08:51:34;;;;;;;7.28;5.13;;;;;;;29.80;54.01;100581.13;4975647;28;20360;-62
2022/07/21 08:54:00;;;;;;;7.80;5.00;;;;;;;29.47;57.12;100574.44;4975422;28;20030;-62
2022/07/21 08:56:26;;;;;;;8.60;5.55;;;;;;;29.62;58.59;100567.41;4975402;28;20125;-62
2022/07/21 08:58:51;;;;;;;7.68;4.68;;;;;;;29.98;57.15;100573.72;4975575;28;20109;-62
2022/07/21 09:01:17;;;;;;;10.05;5.13;;;;;;;30.02;53.81;100570.47;4975301;28;20038;-62
2022/07/21 09:03:42;;;;;;;9.05;5.35;;;;;;;30.72;52.05;100564.78;4975786;28;20082;-62
2022/07/21 09:06:14;;;;;;;7.80;5.10;;;;;;;30.57;52.44;100566.41;4992571;28;20121;-62
2022/07/21 09:08:47;;;;;;;9.48;5.07;;;;;;;30.19;52.58;100572.31;4994504;28;20037;-62
2022/07/21 09:11:17;;;;;;;11.18;5.13;;;;;;;29.99;54.56;100567.19;4994817;28;20030;-62
2022/07/21 09:13:45;;;;;;;9.40;4.72;;;;;;;29.47;55.27;100574.44;4994918;28;20030;-62
2022/07/21 09:16:11;;;;;;;7.10;5.18;;;;;;;29.33;55.65;100570.38;4993771;28;20034;-62
2022/07/21 09:18:52;;;;;;;10.45;5.13;;;;;;;29.15;57.21;100576.84;4976647;28;20030;-62
2022/07/21 09:21:18;;;;;;;9.63;4.93;;;;;;;29.26;56.46;100572.00;4975132;28;20030;-62
2022/07/21 09:23:44;;;;;;;7.60;5.57;;;;;;;29.83;57.80;100562.47;4975171;28;20387;-62
2022/07/21 09:26:10;;;;;;;8.15;4.70;;;;;;;30.71;52.60;100570.41;4975018;28;20035;-62
2022/07/21 09:28:35;;;;;;;7.75;4.90;;;;;;;31.05;50.96;100570.41;4974827;28;20026;-62
2022/07/21 09:31:04;;;;;;;6.40;4.57;;;;;;;31.62;48.80;100564.00;4974615;28;20398;-62
2022/07/21 09:33:35;;;;;;;6.82;4.57;;;;;;;31.87;48.99;100557.50;4973125;28;20023;-62
2022/07/21 09:36:03;;;;;;;7.55;4.13;;;;;;;32.57;47.10;100558.63;4973547;28;20126;-63
2022/07/21 09:38:32;;;;;;;7.57;5.50;;;;;;;32.71;46.66;100546.84;4973218;28;20030;-63
2022/07/21 09:41:10;;;;;;;6.75;4.43;;;;;;;32.34;47.95;100555.69;4974629;28;20031;-63
2022/07/21 09:43:41;;;;;;;8.25;4.90;;;;;;;31.57;50.50;100560.91;4974453;28;20051;-63
2022/07/21 09:46:09;;;;;;;7.97;4.82;;;;;;;31.29;49.49;100556.69;4973140;28;20042;-62
2022/07/21 09:48:37;;;;;;;8.27;4.75;;;;;;;31.34;51.21;100555.22;4973012;28;20035;-62
2022/07/21 09:51:43;;;;;;;7.38;5.22;;;;;;;31.54;52.25;100561.25;4988102;28;20050;-62
2022/07/21 09:54:13;;;;;;;8.75;4.80;;;;;;;31.97;50.91;100558.19;4912316;29;20036;-64
2022/07/21 09:56:41;;;;;;;7.78;4.57;;;;;;;32.30;47.97;100551.59;4912177;29;20080;-64
2022/07/21 09:59:10;;;;;;;8.70;4.97;;;;;;;32.67;48.75;100546.31;4944230;28;20085;-64
2022/07/21 10:01:36;;;;;;;8.02;4.70;;;;;;;32.75;48.23;100548.22;4976204;28;20031;-62
2022/07/21 10:04:03;;;;;;;7.18;4.72;;;;;;;32.86;44.90;100556.94;4995876;28;20026;-62
2022/07/21 10:06:32;;;;;;;7.35;4.90;;;;;;;33.28;46.81;100553.78;4993614;28;20554;-62
2022/07/21 10:08:59;;;;;;;6.32;4.38;;;;;;;33.56;45.89;100556.91;4992209;28;20022;-62
2022/07/21 10:11:26;;;;;;;9.00;4.40;;;;;;;33.09;46.95;100562.53;4992107;28;20483;-62
2022/07/21 10:13:52;;;;;;;5.78;3.90;;;;;;;32.83;46.23;100551.78;4992026;28;20030;-62
2022/07/21 10:16:18;;;;;;;7.53;4.60;;;;;;;32.32;46.65;100552.28;4992288;28;20034;-62
2022/07/21 10:19:02;;;;;;;8.07;4.18;;;;;;;32.63;46.93;100549.63;4991706;28;20062;-61
2022/07/21 10:22:05;;;;;;;7.00;3.78;;;;;;;32.33;47.09;100544.88;4992062;28;20236;-62
2022/07/21 10:24:31;;;;;;;4.93;3.38;;;;;;;32.36;45.91;100552.75;4973980;28;20037;-62
2022/07/21 10:27:10;;;;;;;6.32;3.40;;;;;;;32.65;42.25;100545.66;4980058;28;20036;-61
2022/07/21 10:29:48;;;;;;;5.65;3.25;;;;;;;32.93;43.69;100552.44;4993337;28;20077;-61
2022/07/21 10:32:32;;;;;;;5.78;3.42;;;;;;;33.49;43.46;100547.66;4993413;28;20454;-61
2022/07/21 10:34:59;;;;;;;5.57;3.42;;;;;;;33.63;41.25;100538.56;4993105;28;20093;-62
2022/07/21 10:37:39;;;;;;;6.45;3.00;;;;;;;33.52;43.37;100545.38;4992233;28;20026;-62
2022/07/21 10:40:25;;;;;;;4.53;2.90;;;;;;;33.53;41.87;100548.97;4991189;28;20030;-62
2022/07/21 10:42:59;;;;;;;4.05;2.78;;;;;;;33.14;42.23;100549.94;4973972;28;20106;-62
2022/07/21 10:45:31;;;;;;;5.75;3.33;;;;;;;32.60;45.55;100542.59;4977406;28;20088;-62
2022/07/21 10:47:57;;;;;;;5.03;3.00;;;;;;;32.08;44.97;100552.31;4971636;28;20506;-62
2022/07/21 10:50:38;;;;;;;5.80;3.20;;;;;;;31.31;48.75;100550.03;4971528;28;20037;-61
2022/07/21 10:53:14;;;;;;;5.88;3.20;;;;;;;30.82;50.68;100553.69;4972268;28;20479;-61
2022/07/21 10:55:55;;;;;;;6.35;3.10;;;;;;;30.86;52.15;100558.66;4973192;28;20030;-61
2022/07/21 10:58:32;;;;;;;5.70;3.10;;;;;;;31.77;50.00;100535.66;4975421;28;20031;-61
2022/07/21 11:01:00;;;;;;;5.22;3.03;;;;;;;32.49;45.08;100542.94;4973388;28;20031;-61
2022/07/21 11:03:29;;;;;;;5.32;3.20;;;;;;;33.25;45.62;100541.22;4972975;28;20093;-61
2022/07/21 11:06:24;;;;;;;5.20;2.83;;;;;;;33.68;42.01;100542.50;4972897;28;20058;-61
2022/07/21 11:09:04;;;;;;;5.80;2.72;;;;;;;34.26;42.36;100541.78;4975443;28;20097;-61
2022/07/21 11:11:32;;;;;;;2.95;2.13;;;;;;;34.68;39.51;100542.00;4972887;28;20061;-62
2022/07/21 11:14:11;;;;;;;4.55;2.53;;;;;;;35.35;38.20;100528.84;4975280;28;20200;-62
2022/07/21 11:16:43;;;;;;;4.18;2.30;;;;;;;35.49;39.67;100531.56;4973240;28;20539;-65
2022/07/21 11:19:30;;;;;;;4.07;2.30;;;;;;;35.20;37.72;100534.41;4972835;28;20474;-63